sensor_id;sensor_type;location;lat;lon;timestamp;pressure;altitude;pressure_sealevel;temperature;humidity
67434;BME280;54305;47.950;6.572;2023-03-23T00:01:29;93801.41;;;10.52;79.78
67434;BME280;54305;47.950;6.572;2023-03-23T00:04:13;93809.53;;;10.57;80.50
67434;BME280;54305;47.950;6.572;2023-03-23T00:06:38;93807.19;;;10.62;78.76
67434;BME280;54305;47.950;6.572;2023-03-23T00:09:04;93801.56;;;10.73;77.48
67434;BME280;54305;47.950;6.572;2023-03-23T00:11:32;93805.00;;;10.73;78.57
67434;BME280;54305;47.950;6.572;2023-03-23T00:13:58;93798.63;;;10.76;77.00
67434;BME280;54305;47.950;6.572;2023-03-23T00:16:26;93798.09;;;10.80;76.51
67434;BME280;54305;47.950;6.572;2023-03-23T00:18:58;93788.50;;;10.81;76.76
67434;BME280;54305;47.950;6.572;2023-03-23T00:21:24;93787.16;;;10.85;77.01
67434;BME280;54305;47.950;6.572;2023-03-23T00:23:57;93785.81;;;10.89;75.56
67434;BME280;54305;47.950;6.572;2023-03-23T00:26:24;93780.16;;;10.85;75.96
67434;BME280;54305;47.950;6.572;2023-03-23T00:28:53;93782.28;;;10.82;76.45
67434;BME280;54305;47.950;6.572;2023-03-23T00:31:18;93775.94;;;10.84;76.16
67434;BME280;54305;47.950;6.572;2023-03-23T00:33:44;93771.34;;;10.86;75.96
67434;BME280;54305;47.950;6.572;2023-03-23T00:36:12;93768.03;;;10.92;75.71
67434;BME280;54305;47.950;6.572;2023-03-23T00:38:38;93767.22;;;10.92;75.74
67434;BME280;54305;47.950;6.572;2023-03-23T00:41:04;93759.13;;;10.87;75.79
67434;BME280;54305;47.950;6.572;2023-03-23T00:43:30;93757.88;;;10.83;76.97
67434;BME280;54305;47.950;6.572;2023-03-23T00:45:56;93755.19;;;10.91;75.52
67434;BME280;54305;47.950;6.572;2023-03-23T00:48:22;93758.06;;;10.96;75.71
67434;BME280;54305;47.950;6.572;2023-03-23T00:50:48;93751.53;;;11.00;75.81
67434;BME280;54305;47.950;6.572;2023-03-23T00:53:14;93756.03;;;11.06;75.74
67434;BME280;54305;47.950;6.572;2023-03-23T00:55:41;93761.84;;;11.08;77.14
67434;BME280;54305;47.950;6.572;2023-03-23T00:58:09;93765.44;;;11.07;76.60
67434;BME280;54305;47.950;6.572;2023-03-23T01:00:34;93770.66;;;11.07;77.90
67434;BME280;54305;47.950;6.572;2023-03-23T01:03:02;93763.13;;;11.12;78.25
67434;BME280;54305;47.950;6.572;2023-03-23T01:05:28;93763.84;;;11.20;76.11
67434;BME280;54305;47.950;6.572;2023-03-23T01:07:56;93762.59;;;11.31;76.41
67434;BME280;54305;47.950;6.572;2023-03-23T01:10:22;93754.94;;;11.29;76.77
67434;BME280;54305;47.950;6.572;2023-03-23T01:12:47;93757.66;;;11.21;78.50
67434;BME280;54305;47.950;6.572;2023-03-23T01:15:13;93762.31;;;11.26;77.46
67434;BME280;54305;47.950;6.572;2023-03-23T01:17:42;93764.41;;;11.45;74.97
67434;BME280;54305;47.950;6.572;2023-03-23T01:20:10;93766.66;;;11.48;76.03
67434;BME280;54305;47.950;6.572;2023-03-23T01:22:37;93750.75;;;11.43;76.60
67434;BME280;54305;47.950;6.572;2023-03-23T01:25:03;93740.03;;;11.38;77.75
67434;BME280;54305;47.950;6.572;2023-03-23T01:27:28;93723.31;;;11.32;78.33
67434;BME280;54305;47.950;6.572;2023-03-23T01:29:56;93714.25;;;11.43;77.00
67434;BME280;54305;47.950;6.572;2023-03-23T01:32:21;93711.81;;;11.41;77.21
67434;BME280;54305;47.950;6.572;2023-03-23T01:34:46;93718.56;;;11.36;78.23
67434;BME280;54305;47.950;6.572;2023-03-23T01:37:11;93725.91;;;11.47;78.30
67434;BME280;54305;47.950;6.572;2023-03-23T01:39:37;93738.03;;;11.54;78.18
67434;BME280;54305;47.950;6.572;2023-03-23T01:42:02;93729.50;;;11.46;78.83
67434;BME280;54305;47.950;6.572;2023-03-23T01:46:56;93725.09;;;11.32;80.75
67434;BME280;54305;47.950;6.572;2023-03-23T01:49:22;93715.06;;;11.29;80.05
67434;BME280;54305;47.950;6.572;2023-03-23T01:51:52;93727.81;;;11.53;78.17
67434;BME280;54305;47.950;6.572;2023-03-23T01:54:20;93731.75;;;11.49;78.13
67434;BME280;54305;47.950;6.572;2023-03-23T01:57:02;93728.91;;;11.44;78.97
67434;BME280;54305;47.950;6.572;2023-03-23T01:59:29;93735.47;;;11.40;78.91
67434;BME280;54305;47.950;6.572;2023-03-23T02:01:55;93735.47;;;11.40;79.07
67434;BME280;54305;47.950;6.572;2023-03-23T02:04:21;93732.59;;;11.35;79.87
67434;BME280;54305;47.950;6.572;2023-03-23T02:06:47;93733.56;;;11.34;79.75
67434;BME280;54305;47.950;6.572;2023-03-23T02:09:13;93718.28;;;11.31;79.72
67434;BME280;54305;47.950;6.572;2023-03-23T02:11:39;93725.03;;;11.40;78.76
67434;BME280;54305;47.950;6.572;2023-03-23T02:14:04;93722.22;;;11.27;81.84
67434;BME280;54305;47.950;6.572;2023-03-23T02:19:11;93728.78;;;11.52;78.31
67434;BME280;54305;47.950;6.572;2023-03-23T02:21:59;93711.91;;;11.48;78.10
67434;BME280;54305;47.950;6.572;2023-03-23T02:35:18;93707.56;;;11.55;77.72
67434;BME280;54305;47.950;6.572;2023-03-23T02:38:01;93708.47;;;11.47;79.71
67434;BME280;54305;47.950;6.572;2023-03-23T02:40:31;93706.03;;;11.46;80.11
67434;BME280;54305;47.950;6.572;2023-03-23T02:42:57;93707.91;;;11.52;78.51
67434;BME280;54305;47.950;6.572;2023-03-23T02:45:23;93704.69;;;11.50;79.68
67434;BME280;54305;47.950;6.572;2023-03-23T02:47:52;93699.31;;;11.66;77.66
67434;BME280;54305;47.950;6.572;2023-03-23T02:50:19;93703.00;;;11.71;77.58
67434;BME280;54305;47.950;6.572;2023-03-23T02:52:47;93701.28;;;11.64;78.40
67434;BME280;54305;47.950;6.572;2023-03-23T02:55:13;93692.81;;;11.62;78.64
67434;BME280;54305;47.950;6.572;2023-03-23T02:57:39;93697.69;;;11.65;78.55
67434;BME280;54305;47.950;6.572;2023-03-23T03:00:05;93701.47;;;11.77;76.83
67434;BME280;54305;47.950;6.572;2023-03-23T03:02:35;93704.16;;;11.69;78.04
67434;BME280;54305;47.950;6.572;2023-03-23T03:07:35;93697.69;;;11.65;78.99
67434;BME280;54305;47.950;6.572;2023-03-23T03:10:13;93698.50;;;11.65;78.39
67434;BME280;54305;47.950;6.572;2023-03-23T03:15:36;93692.25;;;11.81;77.32
67434;BME280;54305;47.950;6.572;2023-03-23T03:18:05;93689.38;;;11.76;77.58
67434;BME280;54305;47.950;6.572;2023-03-23T03:20:32;93704.69;;;11.79;77.69
67434;BME280;54305;47.950;6.572;2023-03-23T03:22:59;93701.47;;;11.77;78.04
67434;BME280;54305;47.950;6.572;2023-03-23T03:25:25;93704.84;;;11.77;77.93
67434;BME280;54305;47.950;6.572;2023-03-23T03:27:52;93701.72;;;11.82;78.23
67434;BME280;54305;47.950;6.572;2023-03-23T03:30:20;93700.72;;;11.83;78.20
67434;BME280;54305;47.950;6.572;2023-03-23T03:32:48;93699.81;;;11.76;79.21
67434;BME280;54305;47.950;6.572;2023-03-23T03:35:16;93706.16;;;11.67;79.29
67434;BME280;54305;47.950;6.572;2023-03-23T03:37:41;93705.03;;;11.76;78.66
67434;BME280;54305;47.950;6.572;2023-03-23T03:40:08;93703.81;;;11.72;79.34
67434;BME280;54305;47.950;6.572;2023-03-23T03:42:39;93707.38;;;11.71;79.88
67434;BME280;54305;47.950;6.572;2023-03-23T03:45:06;93716.19;;;11.70;80.46
67434;BME280;54305;47.950;6.572;2023-03-23T03:47:32;93721.84;;;11.73;79.52
67434;BME280;54305;47.950;6.572;2023-03-23T03:49:57;93713.25;;;11.73;80.51
67434;BME280;54305;47.950;6.572;2023-03-23T03:52:23;93723.03;;;11.71;80.05
67434;BME280;54305;47.950;6.572;2023-03-23T03:54:52;93723.25;;;11.69;80.40
67434;BME280;54305;47.950;6.572;2023-03-23T03:57:18;93722.41;;;11.69;80.87
67434;BME280;54305;47.950;6.572;2023-03-23T03:59:43;93719.56;;;11.64;81.60
67434;BME280;54305;47.950;6.572;2023-03-23T04:02:09;93729.03;;;11.57;82.09
67434;BME280;54305;47.950;6.572;2023-03-23T04:04:34;93736.88;;;11.57;82.39
67434;BME280;54305;47.950;6.572;2023-03-23T04:06:59;93736.97;;;11.49;83.28
67434;BME280;54305;47.950;6.572;2023-03-23T04:09:26;93734.72;;;11.46;84.20
67434;BME280;54305;47.950;6.572;2023-03-23T04:11:53;93741.94;;;11.44;84.38
67434;BME280;54305;47.950;6.572;2023-03-23T04:14:18;93740.84;;;11.38;85.30
67434;BME280;54305;47.950;6.572;2023-03-23T04:16:43;93746.22;;;11.37;85.74
67434;BME280;54305;47.950;6.572;2023-03-23T04:19:09;93744.19;;;11.32;86.45
67434;BME280;54305;47.950;6.572;2023-03-23T04:21:37;93749.28;;;11.26;88.00
67434;BME280;54305;47.950;6.572;2023-03-23T04:24:02;93756.03;;;11.20;90.08
67434;BME280;54305;47.950;6.572;2023-03-23T04:26:28;93761.16;;;11.14;91.59
67434;BME280;54305;47.950;6.572;2023-03-23T04:28:57;93753.47;;;10.98;94.96
67434;BME280;54305;47.950;6.572;2023-03-23T04:31:24;93756.91;;;10.98;94.93
67434;BME280;54305;47.950;6.572;2023-03-23T04:33:50;93749.06;;;10.84;97.26
67434;BME280;54305;47.950;6.572;2023-03-23T04:36:17;93749.06;;;10.84;97.94
67434;BME280;54305;47.950;6.572;2023-03-23T04:38:42;93750.69;;;10.85;98.80
67434;BME280;54305;47.950;6.572;2023-03-23T04:41:08;93748.66;;;10.72;100.00
67434;BME280;54305;47.950;6.572;2023-03-23T04:43:33;93748.22;;;10.69;100.00
67434;BME280;54305;47.950;6.572;2023-03-23T04:46:06;93750.81;;;10.69;100.00
67434;BME280;54305;47.950;6.572;2023-03-23T04:48:33;93760.34;;;10.62;100.00
67434;BME280;54305;47.950;6.572;2023-03-23T04:51:02;93753.97;;;10.64;100.00
67434;BME280;54305;47.950;6.572;2023-03-23T04:53:29;93765.16;;;10.65;100.00
67434;BME280;54305;47.950;6.572;2023-03-23T04:55:57;93776.66;;;10.56;100.00
67434;BME280;54305;47.950;6.572;2023-03-23T04:58:22;93769.47;;;10.58;100.00
67434;BME280;54305;47.950;6.572;2023-03-23T05:00:49;93759.06;;;10.58;100.00
67434;BME280;54305;47.950;6.572;2023-03-23T05:03:18;93762.47;;;10.58;100.00
67434;BME280;54305;47.950;6.572;2023-03-23T05:05:44;93762.66;;;10.57;100.00
67434;BME280;54305;47.950;6.572;2023-03-23T05:08:12;93763.81;;;10.54;100.00
67434;BME280;54305;47.950;6.572;2023-03-23T05:10:37;93757.78;;;10.54;100.00
67434;BME280;54305;47.950;6.572;2023-03-23T05:13:03;93759.75;;;10.52;100.00
67434;BME280;54305;47.950;6.572;2023-03-23T05:15:28;93766.25;;;10.56;100.00
67434;BME280;54305;47.950;6.572;2023-03-23T05:17:53;93751.59;;;10.55;100.00
67434;BME280;54305;47.950;6.572;2023-03-23T05:20:19;93747.53;;;10.52;100.00
67434;BME280;54305;47.950;6.572;2023-03-23T05:22:48;93758.78;;;10.53;100.00
67434;BME280;54305;47.950;6.572;2023-03-23T05:25:14;93763.44;;;10.57;100.00
67434;BME280;54305;47.950;6.572;2023-03-23T05:27:39;93777.00;;;10.53;100.00
67434;BME280;54305;47.950;6.572;2023-03-23T05:30:08;93777.69;;;10.47;100.00
67434;BME280;54305;47.950;6.572;2023-03-23T05:32:36;93779.19;;;10.41;100.00
67434;BME280;54305;47.950;6.572;2023-03-23T05:35:02;93782.34;;;10.37;100.00
67434;BME280;54305;47.950;6.572;2023-03-23T05:37:28;93778.28;;;10.34;100.00
67434;BME280;54305;47.950;6.572;2023-03-23T05:39:57;93770.97;;;10.30;100.00
67434;BME280;54305;47.950;6.572;2023-03-23T05:42:23;93766.81;;;10.21;100.00
67434;BME280;54305;47.950;6.572;2023-03-23T05:44:49;93775.94;;;10.17;100.00
67434;BME280;54305;47.950;6.572;2023-03-23T05:47:18;93771.72;;;10.16;100.00
67434;BME280;54305;47.950;6.572;2023-03-23T05:49:43;93784.56;;;10.17;100.00
67434;BME280;54305;47.950;6.572;2023-03-23T05:52:08;93779.88;;;10.13;100.00
67434;BME280;54305;47.950;6.572;2023-03-23T05:54:34;93782.81;;;10.02;100.00
67434;BME280;54305;47.950;6.572;2023-03-23T05:56:59;93777.97;;;9.99;100.00
67434;BME280;54305;47.950;6.572;2023-03-23T05:59:24;93782.69;;;9.95;100.00
67434;BME280;54305;47.950;6.572;2023-03-23T06:01:51;93787.00;;;9.80;100.00
67434;BME280;54305;47.950;6.572;2023-03-23T06:04:16;93785.84;;;9.83;100.00
67434;BME280;54305;47.950;6.572;2023-03-23T06:06:42;93790.88;;;9.84;100.00
67434;BME280;54305;47.950;6.572;2023-03-23T06:09:11;93795.28;;;9.84;100.00
67434;BME280;54305;47.950;6.572;2023-03-23T06:11:36;93795.91;;;9.86;100.00
67434;BME280;54305;47.950;6.572;2023-03-23T06:14:01;93791.34;;;9.88;100.00
67434;BME280;54305;47.950;6.572;2023-03-23T06:16:28;93799.34;;;9.86;100.00
67434;BME280;54305;47.950;6.572;2023-03-23T06:18:53;93796.91;;;9.85;100.00
67434;BME280;54305;47.950;6.572;2023-03-23T06:21:19;93809.22;;;9.91;100.00
67434;BME280;54305;47.950;6.572;2023-03-23T06:23:44;93822.56;;;9.88;100.00
67434;BME280;54305;47.950;6.572;2023-03-23T06:26:10;93825.81;;;9.90;100.00
67434;BME280;54305;47.950;6.572;2023-03-23T06:28:37;93822.91;;;9.85;100.00
67434;BME280;54305;47.950;6.572;2023-03-23T06:31:03;93808.09;;;9.85;100.00
67434;BME280;54305;47.950;6.572;2023-03-23T06:33:31;93808.59;;;9.89;100.00
67434;BME280;54305;47.950;6.572;2023-03-23T06:35:57;93822.22;;;9.91;100.00
67434;BME280;54305;47.950;6.572;2023-03-23T06:38:22;93805.63;;;9.92;100.00
67434;BME280;54305;47.950;6.572;2023-03-23T06:40:47;93810.34;;;9.96;100.00
67434;BME280;54305;47.950;6.572;2023-03-23T06:43:13;93801.03;;;10.02;100.00
67434;BME280;54305;47.950;6.572;2023-03-23T06:45:39;93804.78;;;9.99;100.00
67434;BME280;54305;47.950;6.572;2023-03-23T06:48:04;93809.19;;;9.99;100.00
67434;BME280;54305;47.950;6.572;2023-03-23T06:50:29;93800.41;;;10.00;100.00
67434;BME280;54305;47.950;6.572;2023-03-23T06:52:55;93812.78;;;9.98;100.00
67434;BME280;54305;47.950;6.572;2023-03-23T06:55:21;93807.72;;;10.04;100.00
67434;BME280;54305;47.950;6.572;2023-03-23T06:57:47;93812.78;;;9.98;100.00
67434;BME280;54305;47.950;6.572;2023-03-23T07:00:12;93823.84;;;9.92;100.00
67434;BME280;54305;47.950;6.572;2023-03-23T07:45:28;93839.22;;;10.40;100.00
67434;BME280;54305;47.950;6.572;2023-03-23T07:50:57;93831.63;;;10.61;100.00
67434;BME280;54305;47.950;6.572;2023-03-23T07:53:23;93840.50;;;10.66;100.00
67434;BME280;54305;47.950;6.572;2023-03-23T07:55:49;93841.78;;;10.70;100.00
67434;BME280;54305;47.950;6.572;2023-03-23T07:58:14;93848.16;;;10.68;100.00
67434;BME280;54305;47.950;6.572;2023-03-23T08:00:43;93854.97;;;10.69;100.00
67434;BME280;54305;47.950;6.572;2023-03-23T08:03:09;93851.16;;;10.57;100.00
67434;BME280;54305;47.950;6.572;2023-03-23T08:05:35;93854.28;;;10.52;100.00
67434;BME280;54305;47.950;6.572;2023-03-23T08:08:00;93853.78;;;10.57;100.00
67434;BME280;54305;47.950;6.572;2023-03-23T08:10:26;93863.53;;;10.55;100.00
67434;BME280;54305;47.950;6.572;2023-03-23T08:12:53;93857.66;;;10.61;100.00
67434;BME280;54305;47.950;6.572;2023-03-23T08:15:18;93859.19;;;10.70;100.00
67434;BME280;54305;47.950;6.572;2023-03-23T08:17:46;93869.56;;;10.78;100.00
67434;BME280;54305;47.950;6.572;2023-03-23T08:39:01;93883.81;;;10.90;100.00
67434;BME280;54305;47.950;6.572;2023-03-23T08:41:29;93888.78;;;10.77;100.00
67434;BME280;54305;47.950;6.572;2023-03-23T08:43:55;93884.28;;;10.71;100.00
67434;BME280;54305;47.950;6.572;2023-03-23T08:46:21;93886.59;;;10.66;100.00
67434;BME280;54305;47.950;6.572;2023-03-23T08:48:47;93887.19;;;10.76;100.00
67434;BME280;54305;47.950;6.572;2023-03-23T08:51:12;93882.88;;;10.83;100.00
67434;BME280;54305;47.950;6.572;2023-03-23T08:53:38;93884.16;;;10.87;100.00
67434;BME280;54305;47.950;6.572;2023-03-23T08:56:07;93878.25;;;10.93;100.00
67434;BME280;54305;47.950;6.572;2023-03-23T08:58:33;93870.72;;;10.98;100.00
67434;BME280;54305;47.950;6.572;2023-03-23T09:00:59;93874.25;;;11.05;100.00
67434;BME280;54305;47.950;6.572;2023-03-23T09:03:25;93872.22;;;11.15;100.00
67434;BME280;54305;47.950;6.572;2023-03-23T09:05:50;93882.28;;;11.18;100.00
67434;BME280;54305;47.950;6.572;2023-03-23T09:08:15;93880.31;;;11.20;100.00
67434;BME280;54305;47.950;6.572;2023-03-23T09:10:40;93880.63;;;11.39;100.00
67434;BME280;54305;47.950;6.572;2023-03-23T09:13:06;93887.22;;;11.50;100.00
67434;BME280;54305;47.950;6.572;2023-03-23T09:18:40;93903.22;;;11.47;100.00
67434;BME280;54305;47.950;6.572;2023-03-23T09:30:13;93917.09;;;11.25;100.00
67434;BME280;54305;47.950;6.572;2023-03-23T09:32:44;93917.28;;;11.23;100.00
67434;BME280;54305;47.950;6.572;2023-03-23T09:35:09;93913.31;;;11.27;100.00
67434;BME280;54305;47.950;6.572;2023-03-23T09:37:37;93915.06;;;11.35;100.00
67434;BME280;54305;47.950;6.572;2023-03-23T09:40:04;93915.97;;;11.42;100.00
67434;BME280;54305;47.950;6.572;2023-03-23T09:50:23;93940.75;;;11.38;100.00
67434;BME280;54305;47.950;6.572;2023-03-23T09:52:54;93941.91;;;11.58;100.00
67434;BME280;54305;47.950;6.572;2023-03-23T09:55:20;93941.78;;;11.74;100.00
67434;BME280;54305;47.950;6.572;2023-03-23T09:57:52;93946.44;;;11.64;100.00
67434;BME280;54305;47.950;6.572;2023-03-23T10:00:20;93959.44;;;11.72;100.00
67434;BME280;54305;47.950;6.572;2023-03-23T10:03:05;93962.03;;;11.72;100.00
67434;BME280;54305;47.950;6.572;2023-03-23T10:07:58;93964.34;;;11.22;100.00
67434;BME280;54305;47.950;6.572;2023-03-23T10:10:26;93973.03;;;11.37;100.00
67434;BME280;54305;47.950;6.572;2023-03-23T10:12:56;93969.38;;;11.46;100.00
67434;BME280;54305;47.950;6.572;2023-03-23T10:15:30;93965.22;;;11.37;100.00
67434;BME280;54305;47.950;6.572;2023-03-23T10:20:33;93965.34;;;11.21;100.00
67434;BME280;54305;47.950;6.572;2023-03-23T10:37:55;93951.31;;;11.22;100.00
67434;BME280;54305;47.950;6.572;2023-03-23T10:40:23;93948.88;;;11.20;100.00
67434;BME280;54305;47.950;6.572;2023-03-23T10:42:49;93960.38;;;11.34;100.00
67434;BME280;54305;47.950;6.572;2023-03-23T10:45:21;93949.69;;;11.43;100.00
67434;BME280;54305;47.950;6.572;2023-03-23T10:50:36;93952.75;;;11.47;100.00
67434;BME280;54305;47.950;6.572;2023-03-23T10:53:03;93944.50;;;11.21;100.00
67434;BME280;54305;47.950;6.572;2023-03-23T10:55:37;93942.59;;;11.52;100.00
67434;BME280;54305;47.950;6.572;2023-03-23T10:58:08;93938.56;;;11.72;100.00
67434;BME280;54305;47.950;6.572;2023-03-23T11:00:39;93945.47;;;11.57;100.00
67434;BME280;54305;47.950;6.572;2023-03-23T11:05:40;93936.16;;;12.14;100.00
67434;BME280;54305;47.950;6.572;2023-03-23T11:08:14;93934.78;;;12.47;100.00
67434;BME280;54305;47.950;6.572;2023-03-23T11:10:41;93937.50;;;12.10;100.00
67434;BME280;54305;47.950;6.572;2023-03-23T11:13:12;93943.06;;;11.78;100.00
67434;BME280;54305;47.950;6.572;2023-03-23T11:15:39;93946.44;;;11.64;100.00
67434;BME280;54305;47.950;6.572;2023-03-23T11:18:06;93942.97;;;11.71;100.00
67434;BME280;54305;47.950;6.572;2023-03-23T11:20:36;93944.13;;;11.46;100.00
67434;BME280;54305;47.950;6.572;2023-03-23T11:28:36;93938.97;;;11.61;100.00
67434;BME280;54305;47.950;6.572;2023-03-23T11:31:03;93922.97;;;11.64;100.00
67434;BME280;54305;47.950;6.572;2023-03-23T11:33:36;93922.38;;;11.91;100.00
67434;BME280;54305;47.950;6.572;2023-03-23T11:36:03;93928.13;;;12.15;100.00
67434;BME280;54305;47.950;6.572;2023-03-23T11:38:30;93930.00;;;12.50;100.00
67434;BME280;54305;47.950;6.572;2023-03-23T11:40:55;93933.13;;;12.75;100.00
67434;BME280;54305;47.950;6.572;2023-03-23T11:43:22;93929.16;;;12.79;100.00
67434;BME280;54305;47.950;6.572;2023-03-23T11:46:02;93934.38;;;12.79;100.00
67434;BME280;54305;47.950;6.572;2023-03-23T11:56:41;93941.09;;;12.38;100.00
67434;BME280;54305;47.950;6.572;2023-03-23T11:59:10;93945.97;;;12.41;100.00
67434;BME280;54305;47.950;6.572;2023-03-23T12:07:10;93925.78;;;12.85;100.00
67434;BME280;54305;47.950;6.572;2023-03-23T12:15:41;93930.59;;;13.38;100.00
67434;BME280;54305;47.950;6.572;2023-03-23T12:43:20;93883.16;;;12.84;99.38
67434;BME280;54305;47.950;6.572;2023-03-23T12:48:22;93890.22;;;12.84;96.52
67434;BME280;54305;47.950;6.572;2023-03-23T12:53:36;93896.47;;;12.68;97.96
67434;BME280;54305;47.950;6.572;2023-03-23T12:58:34;93897.06;;;12.85;98.46
67434;BME280;54305;47.950;6.572;2023-03-23T13:01:04;93897.47;;;12.88;99.75
67434;BME280;54305;47.950;6.572;2023-03-23T13:08:39;93875.25;;;13.34;100.00
67434;BME280;54305;47.950;6.572;2023-03-23T13:11:11;93864.34;;;13.10;96.35
67434;BME280;54305;47.950;6.572;2023-03-23T13:13:40;93860.44;;;13.20;95.85
67434;BME280;54305;47.950;6.572;2023-03-23T13:16:11;93853.78;;;13.18;96.01
67434;BME280;54305;47.950;6.572;2023-03-23T13:24:10;93838.84;;;14.01;91.80
67434;BME280;54305;47.950;6.572;2023-03-23T13:26:38;93825.91;;;13.93;88.28
67434;BME280;54305;47.950;6.572;2023-03-23T13:29:14;93833.16;;;13.91;90.54
67434;BME280;54305;47.950;6.572;2023-03-23T13:31:43;93834.53;;;13.53;91.90
67434;BME280;54305;47.950;6.572;2023-03-23T13:39:27;93814.31;;;13.13;94.03
67434;BME280;54305;47.950;6.572;2023-03-23T13:42:18;93808.50;;;13.17;90.21
67434;BME280;54305;47.950;6.572;2023-03-23T13:49:48;93795.72;;;13.29;88.67
67434;BME280;54305;47.950;6.572;2023-03-23T13:52:25;93793.09;;;13.29;89.69
67434;BME280;54305;47.950;6.572;2023-03-23T14:10:34;93776.13;;;14.27;84.67
67434;BME280;54305;47.950;6.572;2023-03-23T14:13:00;93773.63;;;14.06;81.07
67434;BME280;54305;47.950;6.572;2023-03-23T14:15:30;93761.75;;;14.10;79.52
67434;BME280;54305;47.950;6.572;2023-03-23T14:17:56;93775.63;;;14.04;81.72
67434;BME280;54305;47.950;6.572;2023-03-23T14:20:32;93777.63;;;14.02;79.84
67434;BME280;54305;47.950;6.572;2023-03-23T14:22:59;93768.91;;;14.29;80.95
67434;BME280;54305;47.950;6.572;2023-03-23T14:25:29;93765.53;;;14.01;81.51
67434;BME280;54305;47.950;6.572;2023-03-23T14:27:55;93770.19;;;13.65;81.23
67434;BME280;54305;47.950;6.572;2023-03-23T14:30:21;93759.34;;;13.68;79.63
67434;BME280;54305;47.950;6.572;2023-03-23T14:32:47;93758.81;;;13.45;79.23
67434;BME280;54305;47.950;6.572;2023-03-23T14:35:27;93766.56;;;12.83;81.85
67434;BME280;54305;47.950;6.572;2023-03-23T14:37:54;93767.75;;;13.02;85.90
67434;BME280;54305;47.950;6.572;2023-03-23T14:40:20;93766.84;;;13.09;83.07
67434;BME280;54305;47.950;6.572;2023-03-23T14:42:46;93767.63;;;12.89;83.72
67434;BME280;54305;47.950;6.572;2023-03-23T14:45:18;93770.38;;;12.81;84.64
67434;BME280;54305;47.950;6.572;2023-03-23T14:47:46;93763.97;;;12.83;87.82
67434;BME280;54305;47.950;6.572;2023-03-23T14:50:49;93759.56;;;12.84;85.96
67434;BME280;54305;47.950;6.572;2023-03-23T14:53:16;93769.84;;;12.92;89.00
67434;BME280;54305;47.950;6.572;2023-03-23T14:55:42;93767.88;;;12.94;87.40
67434;BME280;54305;47.950;6.572;2023-03-23T14:58:08;93767.25;;;12.92;88.13
67434;BME280;54305;47.950;6.572;2023-03-23T15:00:35;93761.09;;;12.78;87.43
67434;BME280;54305;47.950;6.572;2023-03-23T15:03:03;93768.69;;;12.73;86.43
67434;BME280;54305;47.950;6.572;2023-03-23T15:05:33;93772.75;;;12.76;89.46
67434;BME280;54305;47.950;6.572;2023-03-23T15:08:03;93772.84;;;12.68;90.00
67434;BME280;54305;47.950;6.572;2023-03-23T15:10:29;93781.16;;;12.71;88.81
67434;BME280;54305;47.950;6.572;2023-03-23T15:12:54;93777.16;;;12.75;88.73
67434;BME280;54305;47.950;6.572;2023-03-23T15:15:26;93777.59;;;12.79;88.21
67434;BME280;54305;47.950;6.572;2023-03-23T15:17:52;93784.44;;;12.80;89.82
67434;BME280;54305;47.950;6.572;2023-03-23T15:20:22;93786.88;;;12.81;88.20
67434;BME280;54305;47.950;6.572;2023-03-23T15:22:48;93775.00;;;12.79;88.65
67434;BME280;54305;47.950;6.572;2023-03-23T15:27:43;93777.84;;;12.63;89.45
67434;BME280;54305;47.950;6.572;2023-03-23T15:30:18;93781.19;;;12.57;90.47
67434;BME280;54305;47.950;6.572;2023-03-23T15:32:53;93778.59;;;12.57;89.01
67434;BME280;54305;47.950;6.572;2023-03-23T15:35:19;93781.03;;;12.58;89.31
67434;BME280;54305;47.950;6.572;2023-03-23T15:37:47;93785.81;;;12.55;90.08
67434;BME280;54305;47.950;6.572;2023-03-23T15:40:20;93782.56;;;12.53;91.66
67434;BME280;54305;47.950;6.572;2023-03-23T15:42:46;93780.09;;;12.45;86.74
67434;BME280;54305;47.950;6.572;2023-03-23T15:50:14;93783.66;;;12.44;89.76
67434;BME280;54305;47.950;6.572;2023-03-23T15:52:40;93784.94;;;12.48;91.67
67434;BME280;54305;47.950;6.572;2023-03-23T15:58:00;93786.94;;;12.46;87.95
67434;BME280;54305;47.950;6.572;2023-03-23T16:00:26;93784.94;;;12.48;89.43
67434;BME280;54305;47.950;6.572;2023-03-23T16:02:59;93788.91;;;12.44;89.43
67434;BME280;54305;47.950;6.572;2023-03-23T16:05:25;93788.03;;;12.37;90.16
67434;BME280;54305;47.950;6.572;2023-03-23T16:07:51;93780.44;;;12.42;90.12
67434;BME280;54305;47.950;6.572;2023-03-23T16:10:17;93777.91;;;12.48;89.80
67434;BME280;54305;47.950;6.572;2023-03-23T16:12:43;93783.38;;;12.53;88.80
67434;BME280;54305;47.950;6.572;2023-03-23T16:15:08;93769.75;;;12.58;89.40
67434;BME280;54305;47.950;6.572;2023-03-23T16:17:33;93767.72;;;12.53;88.89
67434;BME280;54305;47.950;6.572;2023-03-23T16:19:58;93762.06;;;12.50;97.77
67434;BME280;54305;47.950;6.572;2023-03-23T16:22:24;93767.06;;;12.51;98.37
67434;BME280;54305;47.950;6.572;2023-03-23T16:24:49;93761.25;;;12.49;95.22
67434;BME280;54305;47.950;6.572;2023-03-23T16:27:14;93765.03;;;12.47;96.29
67434;BME280;54305;47.950;6.572;2023-03-23T16:29:40;93760.06;;;12.52;97.10
67434;BME280;54305;47.950;6.572;2023-03-23T16:32:05;93763.25;;;12.47;95.69
67434;BME280;54305;47.950;6.572;2023-03-23T16:34:30;93759.44;;;12.50;95.51
67434;BME280;54305;47.950;6.572;2023-03-23T16:36:57;93764.78;;;12.42;91.29
67434;BME280;54305;47.950;6.572;2023-03-23T16:39:23;93761.56;;;12.40;90.77
67434;BME280;54305;47.950;6.572;2023-03-23T16:41:48;93765.13;;;12.39;92.43
67434;BME280;54305;47.950;6.572;2023-03-23T16:44:13;93761.91;;;12.37;93.60
67434;BME280;54305;47.950;6.572;2023-03-23T16:46:38;93756.69;;;12.37;92.90
67434;BME280;54305;47.950;6.572;2023-03-23T16:49:04;93758.69;;;12.35;97.32
67434;BME280;54305;47.950;6.572;2023-03-23T16:51:29;93753.84;;;12.32;97.80
67434;BME280;54305;47.950;6.572;2023-03-23T16:53:55;93757.25;;;12.32;94.95
67434;BME280;54305;47.950;6.572;2023-03-23T16:56:20;93762.66;;;12.31;93.63